Time;durP1;ratioP1;P1;durP2;ratioP2;P2;SDS_P1;SDS_P2;PMS_P1;PMS_P2;Temp;Humidity;BMP_temperature;BMP_pressure;BME280_temperature;BME280_humidity;BME280_pressure;Samples;Min_cycle;Max_cycle;Signal;HPM_P1;HPM_P2
2023/06/17 00:00:56;;;;;;;8.20;7.50;;;;;;;20.36;40.95;99380.16;4917550;29;20230;-79
2023/06/17 00:03:21;;;;;;;8.27;6.97;;;;;;;20.04;41.85;99384.44;4911646;29;20639;-79
2023/06/17 00:05:46;;;;;;;7.40;6.63;;;;;;;19.78;42.57;99381.03;4913929;29;20272;-78
2023/06/17 00:08:12;;;;;;;7.80;7.10;;;;;;;19.58;43.23;99388.44;4912131;29;20216;-78
2023/06/17 00:10:37;;;;;;;7.70;7.10;;;;;;;19.41;43.64;99387.53;4914644;29;20216;-79
2023/06/17 00:13:03;;;;;;;7.93;7.10;;;;;;;19.30;43.96;99385.16;4913702;29;20269;-78
2023/06/17 00:15:32;;;;;;;7.43;6.77;;;;;;;19.23;43.74;99391.13;4910761;29;20704;-78
2023/06/17 00:18:00;;;;;;;10.63;6.20;;;;;;;19.24;43.66;99382.13;4909034;29;20449;-79
2023/06/17 00:20:25;;;;;;;7.23;6.60;;;;;;;19.31;43.66;99384.13;4920009;29;20448;-78
2023/06/17 00:22:52;;;;;;;8.00;6.97;;;;;;;19.39;43.46;99384.22;4912495;29;21050;-79
2023/06/17 00:25:18;;;;;;;6.83;6.13;;;;;;;19.45;43.42;99383.56;4913124;29;20317;-78
2023/06/17 00:27:44;;;;;;;8.60;6.67;;;;;;;19.49;43.09;99374.25;4908522;29;20874;-79
2023/06/17 00:30:10;;;;;;;7.17;6.53;;;;;;;19.52;42.88;99370.41;4916760;29;20516;-79
2023/06/17 00:32:36;;;;;;;6.90;6.20;;;;;;;19.53;42.89;99380.94;4917190;29;20214;-79
2023/06/17 00:35:05;;;;;;;6.67;6.13;;;;;;;19.54;42.83;99373.78;4915794;29;20491;-79
2023/06/17 00:37:31;;;;;;;11.90;6.17;;;;;;;19.54;42.71;99368.44;4914286;29;20204;-78
2023/06/17 00:39:57;;;;;;;8.30;6.63;;;;;;;19.54;42.59;99371.94;4895444;29;20481;-78
2023/06/17 00:42:22;;;;;;;7.80;6.43;;;;;;;19.58;42.48;99377.78;4916947;29;20497;-79
2023/06/17 00:44:47;;;;;;;8.87;6.83;;;;;;;19.58;42.47;99367.13;4918857;29;20707;-78
2023/06/17 00:47:14;;;;;;;8.03;7.33;;;;;;;19.57;42.26;99368.94;4897804;29;20216;-78
2023/06/17 00:49:41;;;;;;;6.80;5.93;;;;;;;19.51;42.68;99360.78;4914298;29;20209;-79
2023/06/17 00:52:08;;;;;;;10.10;8.63;;;;;;;19.39;42.96;99374.38;4917495;29;20746;-78
2023/06/17 00:54:38;;;;;;;8.53;6.70;;;;;;;19.26;43.11;99371.31;4903797;29;20880;-79
2023/06/17 00:57:14;;;;;;;8.20;7.27;;;;;;;19.16;43.55;99374.09;4916518;29;20714;-78
2023/06/17 00:59:42;;;;;;;9.60;7.40;;;;;;;19.12;43.53;99375.41;4910360;29;20486;-79
2023/06/17 01:02:10;;;;;;;7.20;6.20;;;;;;;19.10;43.82;99371.25;4895123;29;20453;-78
2023/06/17 01:04:43;;;;;;;7.10;6.43;;;;;;;19.08;43.73;99368.72;4914395;29;20439;-79
2023/06/17 01:07:42;;;;;;;7.60;6.20;;;;;;;19.09;43.94;99377.53;4913556;29;20897;-78
2023/06/17 01:10:18;;;;;;;9.80;8.80;;;;;;;19.08;44.13;99375.88;4911933;29;20423;-78
2023/06/17 01:12:45;;;;;;;7.47;6.60;;;;;;;19.07;43.75;99380.38;4909251;29;20853;-79
2023/06/17 01:15:13;;;;;;;7.17;6.47;;;;;;;19.07;43.71;99379.56;4899145;29;20453;-78
2023/06/17 01:17:43;;;;;;;7.80;7.00;;;;;;;19.03;44.09;99381.66;4916979;29;20474;-79
2023/06/17 01:20:12;;;;;;;7.47;6.57;;;;;;;19.01;44.10;99381.00;4904720;29;20864;-79
2023/06/17 01:22:38;;;;;;;6.83;6.03;;;;;;;19.00;44.06;99380.16;4899063;29;20880;-78
2023/06/17 01:25:04;;;;;;;7.40;6.70;;;;;;;18.98;44.25;99375.97;4900303;29;20542;-78
2023/06/17 01:27:33;;;;;;;7.33;6.67;;;;;;;18.96;44.48;99375.31;4901055;29;20232;-79
2023/06/17 01:29:59;;;;;;;7.60;6.90;;;;;;;18.95;44.65;99378.97;4906796;29;20452;-79
2023/06/17 01:32:26;;;;;;;10.07;7.70;;;;;;;18.96;44.54;99381.47;4892397;29;20456;-78
2023/06/17 01:35:00;;;;;;;8.10;7.30;;;;;;;18.94;44.73;99379.97;4913023;29;20468;-78
2023/06/17 01:37:34;;;;;;;8.33;7.00;;;;;;;18.83;44.91;99375.72;4909456;29;20939;-79
2023/06/17 01:40:00;;;;;;;8.10;7.00;;;;;;;18.69;45.31;99382.44;4915375;29;20470;-78
2023/06/17 01:42:31;;;;;;;9.60;8.70;;;;;;;18.55;45.72;99378.50;4890931;29;20458;-78
2023/06/17 01:44:59;;;;;;;7.00;6.30;;;;;;;18.40;46.04;99379.22;4915120;29;20455;-78
2023/06/17 01:47:26;;;;;;;7.83;7.13;;;;;;;18.29;46.20;99372.28;4910748;29;20434;-78
2023/06/17 01:49:51;;;;;;;10.00;8.80;;;;;;;18.22;46.71;99380.03;4915453;29;20438;-78
2023/06/17 01:52:17;;;;;;;10.30;8.43;;;;;;;18.14;46.86;99385.28;4907100;29;20822;-78
2023/06/17 01:54:42;;;;;;;10.00;7.50;;;;;;;18.09;47.05;99380.44;4902726;29;20220;-78
2023/06/17 01:57:08;;;;;;;10.43;7.37;;;;;;;18.09;46.99;99379.56;4914262;29;20245;-79
2023/06/17 01:59:33;;;;;;;8.43;7.57;;;;;;;18.09;47.36;99379.56;4892216;29;20216;-79
2023/06/17 02:01:58;;;;;;;10.70;8.20;;;;;;;18.05;47.62;99381.72;4908845;29;20248;-79
2023/06/17 02:04:24;;;;;;;8.50;7.67;;;;;;;18.01;47.72;99384.81;4906403;29;20311;-78
2023/06/17 02:06:51;;;;;;;7.73;6.93;;;;;;;17.96;48.00;99376.44;4892360;29;20211;-78
2023/06/17 02:09:17;;;;;;;9.43;8.00;;;;;;;17.88;48.27;99372.75;4899955;29;20227;-79
2023/06/17 02:11:43;;;;;;;8.57;7.70;;;;;;;17.79;48.44;99378.94;4904435;29;20472;-79
2023/06/17 02:14:08;;;;;;;7.80;7.00;;;;;;;17.72;48.79;99375.19;4910576;29;20560;-79
2023/06/17 02:16:33;;;;;;;9.40;8.10;;;;;;;17.65;49.14;99377.59;4898474;29;20207;-79
2023/06/17 02:19:02;;;;;;;7.83;7.13;;;;;;;17.62;49.50;99380.53;4884838;29;20288;-79
2023/06/17 02:21:27;;;;;;;14.33;8.03;;;;;;;17.63;49.48;99374.28;4913705;29;20299;-79
2023/06/17 02:23:53;;;;;;;9.33;8.10;;;;;;;17.61;49.63;99376.22;4907382;29;20573;-79
2023/06/17 02:26:18;;;;;;;10.30;8.53;;;;;;;17.57;49.76;99377.50;4903554;29;21011;-79
2023/06/17 02:28:43;;;;;;;9.37;8.27;;;;;;;17.56;50.23;99375.00;4904870;29;20604;-79
2023/06/17 02:31:09;;;;;;;9.03;7.37;;;;;;;17.53;50.36;99373.47;4908478;29;20234;-79
2023/06/17 02:33:35;;;;;;;9.57;8.57;;;;;;;17.53;50.83;99373.47;4898276;29;20437;-78
2023/06/17 02:36:01;;;;;;;9.95;8.95;;;;;;;17.52;51.39;99371.78;4912728;29;20933;-79
2023/06/17 02:38:28;;;;;;;9.03;8.17;;;;;;;17.52;51.52;99371.78;4897768;29;20236;-79
2023/06/17 02:40:54;;;;;;;8.20;7.40;;;;;;;17.55;51.36;99370.66;4888356;29;20557;-79
2023/06/17 02:43:20;;;;;;;9.47;8.40;;;;;;;17.53;51.29;99372.66;4896042;29;20826;-79
2023/06/17 02:45:45;;;;;;;9.60;7.93;;;;;;;17.51;51.00;99369.31;4910208;29;21095;-79
2023/06/17 02:48:11;;;;;;;7.90;7.10;;;;;;;17.47;50.92;99372.25;4910948;29;20695;-78
2023/06/17 02:50:36;;;;;;;10.23;8.27;;;;;;;17.41;50.88;99364.03;4905560;29;20218;-79
2023/06/17 02:53:04;;;;;;;7.50;6.80;;;;;;;17.40;50.86;99365.84;4887590;29;20810;-79
2023/06/17 02:55:30;;;;;;;11.60;7.83;;;;;;;17.43;50.62;99370.88;4904957;29;20240;-79
2023/06/17 02:57:57;;;;;;;8.10;6.63;;;;;;;17.45;50.25;99363.59;4891329;29;21018;-79
2023/06/17 03:00:24;;;;;;;9.00;8.07;;;;;;;17.48;50.04;99363.28;4901839;29;20481;-78
2023/06/17 03:02:50;;;;;;;8.17;7.40;;;;;;;17.48;49.86;99370.44;4890327;29;20503;-79
2023/06/17 03:05:16;;;;;;;8.53;7.63;;;;;;;17.47;49.76;99369.59;4911399;29;20441;-79
2023/06/17 03:07:42;;;;;;;9.57;8.03;;;;;;;17.47;49.58;99364.28;4893218;29;20472;-79
2023/06/17 03:10:09;;;;;;;8.23;7.43;;;;;;;17.47;49.53;99366.09;4914928;29;20492;-79
2023/06/17 03:12:41;;;;;;;8.07;7.37;;;;;;;17.46;49.35;99359.94;4901191;29;20427;-80
2023/06/17 03:15:08;;;;;;;7.13;6.53;;;;;;;17.44;49.31;99363.72;4908125;29;20903;-79
2023/06/17 03:17:35;;;;;;;7.70;6.83;;;;;;;17.40;49.44;99363.19;4893440;29;20483;-79
2023/06/17 03:20:02;;;;;;;11.50;8.43;;;;;;;17.34;49.51;99369.09;4908347;29;21071;-79
2023/06/17 03:22:29;;;;;;;9.13;8.07;;;;;;;17.27;49.86;99370.66;4887201;29;20207;-79
2023/06/17 03:24:55;;;;;;;9.17;8.20;;;;;;;17.15;50.27;99367.38;4903940;29;20576;-79
2023/06/17 03:27:21;;;;;;;8.67;7.47;;;;;;;16.99;50.74;99367.97;4891135;29;21044;-79
2023/06/17 03:29:49;;;;;;;8.87;7.53;;;;;;;16.89;50.96;99364.50;4887712;29;20225;-79
2023/06/17 03:32:14;;;;;;;12.27;7.80;;;;;;;16.90;51.17;99368.00;4893010;29;20491;-79
2023/06/17 03:34:42;;;;;;;12.02;8.32;;;;;;;16.93;51.05;99368.56;4867783;29;20632;-80
2023/06/17 03:37:10;;;;;;;8.10;7.30;;;;;;;16.98;51.19;99373.41;4899863;29;20291;-79
2023/06/17 03:39:36;;;;;;;9.37;7.93;;;;;;;17.00;51.16;99376.75;4894679;29;20459;-79
2023/06/17 03:42:02;;;;;;;8.43;7.60;;;;;;;16.96;51.35;99376.22;4889844;29;20211;-79
2023/06/17 03:44:27;;;;;;;8.17;7.30;;;;;;;16.81;51.62;99380.31;4871151;29;20497;-79
2023/06/17 03:46:53;;;;;;;9.47;8.57;;;;;;;16.70;51.71;99383.94;4871519;29;20258;-79
2023/06/17 03:49:19;;;;;;;8.37;7.63;;;;;;;16.62;52.04;99378.50;4868824;29;20217;-79
2023/06/17 03:51:44;;;;;;;9.07;8.10;;;;;;;16.57;52.05;99384.22;4888706;29;20550;-79
2023/06/17 03:54:10;;;;;;;8.60;7.80;;;;;;;16.55;52.08;99387.97;4889884;29;20232;-79
2023/06/17 03:56:36;;;;;;;10.20;7.60;;;;;;;16.51;52.22;99382.13;4872103;29;20214;-80
2023/06/17 03:59:02;;;;;;;10.87;7.83;;;;;;;16.49;52.20;99386.72;4892462;29;20498;-79
2023/06/17 04:01:27;;;;;;;9.60;7.13;;;;;;;16.48;52.23;99386.88;4901254;29;20846;-79
2023/06/17 04:03:53;;;;;;;9.57;8.60;;;;;;;16.50;52.30;99375.16;4872636;29;20897;-79
2023/06/17 04:06:18;;;;;;;9.63;8.70;;;;;;;16.59;52.33;99381.44;4869758;29;20449;-79
2023/06/17 04:08:44;;;;;;;10.20;8.30;;;;;;;16.66;52.07;99384.34;4885869;29;20283;-79
2023/06/17 04:11:09;;;;;;;9.60;7.50;;;;;;;16.75;51.75;99389.63;4890409;29;20239;-79
2023/06/17 04:13:35;;;;;;;8.90;8.00;;;;;;;16.83;51.41;99375.69;4874672;29;20239;-79
2023/06/17 04:16:00;;;;;;;9.13;8.00;;;;;;;16.91;51.19;99394.38;4877030;29;20700;-79
2023/06/17 04:18:28;;;;;;;8.67;7.10;;;;;;;16.96;50.93;99392.16;4890392;29;20208;-80
2023/06/17 04:20:56;;;;;;;8.20;7.40;;;;;;;17.02;50.90;99385.44;4870354;29;20299;-79
2023/06/17 04:23:25;;;;;;;8.50;7.70;;;;;;;17.09;50.83;99385.66;4874879;29;20464;-79
2023/06/17 04:25:52;;;;;;;9.73;7.33;;;;;;;17.15;50.73;99391.25;4911388;29;20476;-79
2023/06/17 04:28:18;;;;;;;8.83;8.03;;;;;;;17.18;50.76;99395.44;4900877;29;20460;-80
2023/06/17 04:30:47;;;;;;;10.00;7.77;;;;;;;17.23;50.84;99393.19;4899154;29;20623;-80
2023/06/17 04:33:14;;;;;;;8.98;7.35;;;;;;;17.27;50.76;99394.56;4897017;29;20446;-79
2023/06/17 04:35:44;;;;;;;9.43;8.52;;;;;;;17.34;51.22;99400.13;4898715;29;20471;-79
2023/06/17 04:38:10;;;;;;;11.63;7.40;;;;;;;17.40;51.22;99388.91;4898346;29;20274;-77
2023/06/17 04:40:37;;;;;;;9.33;7.70;;;;;;;17.44;51.15;99395.59;4906839;29;20467;-79
2023/06/17 04:43:03;;;;;;;10.53;8.80;;;;;;;17.51;50.83;99387.88;4922134;29;20481;-78
2023/06/17 04:45:30;;;;;;;7.63;6.90;;;;;;;17.64;50.57;99391.88;4908128;29;20277;-79
2023/06/17 04:47:58;;;;;;;10.30;7.97;;;;;;;17.94;49.94;99386.41;4922837;29;20440;-79
2023/06/17 04:50:24;;;;;;;7.63;6.83;;;;;;;18.36;49.00;99389.28;4906388;29;20467;-78
2023/06/17 04:52:52;;;;;;;12.73;8.87;;;;;;;18.87;47.87;99394.88;4919675;29;20211;-77
2023/06/17 04:55:21;;;;;;;9.20;7.90;;;;;;;19.32;46.82;99389.31;4907191;29;20216;-79
2023/06/17 04:57:47;;;;;;;9.63;8.10;;;;;;;19.70;45.78;99384.50;4900314;29;20452;-79
2023/06/17 05:00:19;;;;;;;8.53;7.73;;;;;;;20.06;45.10;99384.25;4899929;29;20484;-78
2023/06/17 05:02:45;;;;;;;9.67;8.73;;;;;;;20.35;44.38;99381.13;4901196;29;20816;-79
2023/06/17 05:05:10;;;;;;;9.48;8.48;;;;;;;20.72;43.71;99393.19;4899951;29;20840;-79
2023/06/17 05:07:36;;;;;;;11.93;8.50;;;;;;;21.08;42.95;99387.44;4914034;29;20377;-79
2023/06/17 05:10:03;;;;;;;11.77;8.37;;;;;;;21.41;42.28;99390.88;4908523;29;20701;-80
2023/06/17 05:12:29;;;;;;;9.17;8.17;;;;;;;21.72;41.71;99382.88;4911264;29;20450;-80
2023/06/17 05:14:55;;;;;;;8.73;7.93;;;;;;;21.95;41.01;99396.28;4901042;29;20488;-77
2023/06/17 05:17:20;;;;;;;9.17;7.43;;;;;;;22.18;40.54;99391.00;4902267;29;20227;-79
2023/06/17 05:19:46;;;;;;;8.80;7.97;;;;;;;22.53;39.85;99391.41;4912260;29;20370;-78
2023/06/17 05:22:11;;;;;;;9.57;8.67;;;;;;;22.85;38.86;99398.31;4909398;29;20265;-78
2023/06/17 05:24:37;;;;;;;8.93;7.97;;;;;;;23.01;38.49;99391.16;4889410;29;20496;-80
2023/06/17 05:27:03;;;;;;;8.00;7.07;;;;;;;23.14;38.06;99392.22;4902471;29;20779;-80
2023/06/17 05:29:28;;;;;;;8.17;7.23;;;;;;;23.32;37.48;99389.16;4902260;29;20219;-80
2023/06/17 05:31:54;;;;;;;8.10;7.30;;;;;;;23.58;36.67;99387.84;4888514;29;20481;-80
2023/06/17 05:34:19;;;;;;;7.60;7.00;;;;;;;23.89;35.97;99389.47;4898740;29;20273;-80
2023/06/17 05:36:45;;;;;;;8.43;7.63;;;;;;;24.20;35.20;99389.19;4898814;29;20654;-80
2023/06/17 05:39:10;;;;;;;7.43;6.73;;;;;;;24.56;34.60;99388.31;4909621;29;20240;-80
2023/06/17 05:41:35;;;;;;;12.40;6.50;;;;;;;24.83;33.87;99384.00;4887118;29;20214;-80
2023/06/17 05:44:01;;;;;;;8.20;6.60;;;;;;;25.01;33.20;99383.50;4898639;29;20208;-79
2023/06/17 05:46:27;;;;;;;8.13;7.13;;;;;;;25.14;33.12;99386.25;4884119;29;20473;-80
2023/06/17 05:48:52;;;;;;;6.80;6.03;;;;;;;25.35;32.78;99382.69;4880977;29;20275;-81
2023/06/17 05:51:18;;;;;;;6.10;5.60;;;;;;;25.55;32.65;99383.63;4893614;29;20710;-81
2023/06/17 05:53:44;;;;;;;7.80;7.07;;;;;;;25.70;32.32;99388.84;4878986;29;20261;-80
2023/06/17 05:56:10;;;;;;;7.00;6.30;;;;;;;25.88;32.15;99385.63;4902979;29;20619;-80
2023/06/17 05:58:36;;;;;;;7.13;6.43;;;;;;;25.97;31.75;99381.72;4896566;29;20607;-81
2023/06/17 06:01:05;;;;;;;7.27;6.70;;;;;;;26.07;31.59;99384.03;4874225;29;20529;-81
2023/06/17 06:03:31;;;;;;;9.60;7.23;;;;;;;26.23;31.43;99388.22;4883355;29;20988;-81
2023/06/17 06:05:57;;;;;;;7.23;6.53;;;;;;;26.31;30.96;99392.56;4900360;29;20204;-80
2023/06/17 06:08:22;;;;;;;7.90;7.20;;;;;;;26.34;31.27;99389.47;4882003;29;20478;-80
2023/06/17 06:10:48;;;;;;;7.63;6.50;;;;;;;26.43;31.10;99399.00;4904271;29;20208;-80
2023/06/17 06:13:13;;;;;;;7.07;6.37;;;;;;;26.63;30.82;99394.50;4887778;29;20206;-80
2023/06/17 06:15:42;;;;;;;6.93;6.33;;;;;;;26.97;30.39;99386.38;4883048;29;20272;-81
2023/06/17 06:18:07;;;;;;;6.30;5.83;;;;;;;27.16;29.80;99396.28;4889619;29;20211;-80
2023/06/17 06:20:33;;;;;;;7.37;6.70;;;;;;;27.31;29.77;99393.41;4880548;29;20500;-80
2023/06/17 06:22:58;;;;;;;6.70;6.20;;;;;;;27.61;28.99;99388.31;4893940;29;20213;-81
2023/06/17 06:25:25;;;;;;;8.77;6.60;;;;;;;28.00;28.44;99394.59;4909971;29;20224;-80
2023/06/17 06:27:50;;;;;;;8.73;7.93;;;;;;;28.37;27.26;99400.19;4900996;29;20966;-81
2023/06/17 06:30:16;;;;;;;8.90;7.80;;;;;;;28.70;27.03;99391.84;4899800;29;20577;-79
2023/06/17 06:32:45;;;;;;;8.87;6.93;;;;;;;28.99;26.58;99392.22;4913228;29;20489;-80
2023/06/17 06:35:11;;;;;;;8.47;7.60;;;;;;;29.18;26.16;99391.22;4894500;29;20494;-80
2023/06/17 06:37:36;;;;;;;8.60;7.30;;;;;;;29.23;26.16;99396.78;4913337;29;20850;-79
2023/06/17 06:40:05;;;;;;;7.83;7.03;;;;;;;29.40;26.21;99401.59;4894376;29;20497;-80
2023/06/17 06:42:31;;;;;;;7.60;6.90;;;;;;;29.62;25.97;99397.38;4897813;29;20242;-80
2023/06/17 06:45:12;;;;;;;7.03;6.23;;;;;;;29.76;25.62;99390.78;4897973;29;20462;-80
2023/06/17 06:47:37;;;;;;;7.73;6.97;;;;;;;29.94;25.21;99395.31;4913314;29;20511;-80
2023/06/17 06:50:03;;;;;;;11.10;7.20;;;;;;;30.02;24.99;99390.66;4895721;29;20228;-80
2023/06/17 06:52:28;;;;;;;15.87;13.27;;;;;;;30.05;24.86;99390.19;4917020;29;20197;-80
2023/06/17 06:54:54;;;;;;;15.37;8.77;;;;;;;30.16;24.95;99392.97;4914194;29;20206;-80
2023/06/17 06:57:20;;;;;;;12.30;6.90;;;;;;;30.40;24.72;99398.44;4910279;29;20207;-80
2023/06/17 06:59:46;;;;;;;7.73;7.00;;;;;;;30.60;24.23;99393.56;4899105;29;20215;-82
2023/06/17 07:02:11;;;;;;;8.67;7.33;;;;;;;30.76;24.23;99391.19;4911601;29;20502;-82
2023/06/17 07:04:38;;;;;;;8.20;7.37;;;;;;;30.93;23.57;99392.19;4898369;29;20207;-80
2023/06/17 07:07:06;;;;;;;7.37;6.67;;;;;;;30.92;23.56;99390.53;4920807;29;20453;-81
2023/06/17 07:09:39;;;;;;;8.13;6.77;;;;;;;31.00;23.58;99392.06;4909937;29;20456;-79
2023/06/17 07:12:05;;;;;;;7.53;6.87;;;;;;;31.16;23.42;99390.50;4901432;29;20566;-81
2023/06/17 07:14:33;;;;;;;10.90;7.97;;;;;;;31.26;23.06;99391.56;4915187;29;20521;-80
2023/06/17 07:17:00;;;;;;;6.87;6.30;;;;;;;31.25;22.91;99389.09;4915670;29;20548;-80
2023/06/17 07:19:25;;;;;;;8.10;7.40;;;;;;;31.14;23.02;99395.38;4905375;29;20548;-80
2023/06/17 07:21:51;;;;;;;7.20;6.50;;;;;;;31.08;23.44;99389.84;4906786;29;20205;-82
2023/06/17 07:24:17;;;;;;;8.00;7.20;;;;;;;31.17;23.13;99382.16;4920111;29;20474;-81
2023/06/17 07:26:42;;;;;;;6.73;6.10;;;;;;;31.30;22.84;99390.03;4917845;29;20195;-81
2023/06/17 07:29:08;;;;;;;7.60;7.00;;;;;;;31.13;22.94;99385.56;4905123;29;20180;-82
2023/06/17 07:31:34;;;;;;;8.27;6.50;;;;;;;30.96;23.10;99385.47;4900117;29;20196;-81
2023/06/17 07:34:00;;;;;;;8.33;7.47;;;;;;;30.77;23.56;99384.72;4924075;29;20552;-81
2023/06/17 07:36:29;;;;;;;7.70;7.00;;;;;;;30.63;23.00;99393.06;4920617;29;20450;-81
2023/06/17 07:38:55;;;;;;;8.17;7.37;;;;;;;30.76;23.04;99381.19;4903196;29;20222;-82
2023/06/17 07:41:21;;;;;;;10.00;7.53;;;;;;;31.06;22.54;99380.28;4922342;29;20778;-81
2023/06/17 07:43:46;;;;;;;23.27;9.60;;;;;;;31.37;22.69;99380.97;4908908;29;20463;-82
2023/06/17 07:46:12;;;;;;;8.77;6.27;;;;;;;31.52;22.12;99379.41;4913802;29;20197;-83
2023/06/17 07:48:37;;;;;;;8.53;7.83;;;;;;;31.58;22.38;99376.78;4912909;29;20481;-81
2023/06/17 07:51:02;;;;;;;7.40;6.67;;;;;;;31.68;22.00;99382.44;4916197;29;20214;-82
2023/06/17 07:53:28;;;;;;;8.13;7.33;;;;;;;31.68;22.24;99368.84;4916456;29;20226;-81
2023/06/17 07:55:53;;;;;;;8.40;6.93;;;;;;;31.68;22.05;99366.13;4923073;29;20209;-81
2023/06/17 07:58:20;;;;;;;7.40;6.60;;;;;;;31.70;21.74;99363.97;4921542;29;20307;-81
2023/06/17 08:00:45;;;;;;;8.73;8.00;;;;;;;31.82;21.48;99367.50;4921039;29;20200;-81
2023/06/17 08:05:52;;;;;;;10.50;7.80;;;;;;;31.51;21.35;99361.47;5174546;23;20236;-81
2023/06/17 08:08:17;;;;;;;7.10;6.40;;;;;;;31.37;21.79;99360.06;4971902;28;20456;-81
2023/06/17 08:10:43;;;;;;;7.10;6.23;;;;;;;31.22;21.74;99362.44;4978028;28;20195;-81
2023/06/17 08:13:08;;;;;;;8.53;7.73;;;;;;;31.16;22.11;99355.25;4971781;28;20287;-82
2023/06/17 08:15:35;;;;;;;7.90;7.20;;;;;;;31.12;22.20;99352.19;4973081;28;20280;-81
2023/06/17 08:18:00;;;;;;;7.13;5.97;;;;;;;31.17;22.59;99348.78;4974403;28;20212;-81
2023/06/17 08:20:25;;;;;;;8.27;6.83;;;;;;;31.20;22.49;99348.28;4979078;28;20451;-81
2023/06/17 08:22:51;;;;;;;7.90;7.20;;;;;;;31.30;23.01;99351.22;4971081;28;20537;-81
2023/06/17 08:25:16;;;;;;;7.30;6.60;;;;;;;31.29;23.16;99352.28;4971542;28;20213;-81
2023/06/17 08:27:47;;;;;;;7.47;6.77;;;;;;;31.09;23.06;99350.78;4966778;28;20297;-81
2023/06/17 08:30:13;;;;;;;7.40;6.70;;;;;;;30.88;23.29;99339.72;4970506;28;20216;-81
2023/06/17 08:32:38;;;;;;;9.63;7.40;;;;;;;30.86;23.64;99339.94;4970985;28;20449;-81
2023/06/17 08:35:06;;;;;;;7.73;7.03;;;;;;;31.03;23.61;99340.88;4970700;28;20499;-81
2023/06/17 08:37:33;;;;;;;7.63;6.37;;;;;;;31.24;23.42;99347.56;4970351;28;20215;-80
2023/06/17 08:39:59;;;;;;;7.33;6.70;;;;;;;31.47;23.17;99333.13;4970923;28;20458;-81
2023/06/17 08:42:26;;;;;;;7.63;6.90;;;;;;;31.60;22.69;99337.47;4972030;28;20451;-81
2023/06/17 08:44:53;;;;;;;6.67;5.70;;;;;;;31.62;21.93;99334.50;4974801;28;20463;-82
2023/06/17 08:47:18;;;;;;;13.47;6.73;;;;;;;31.49;22.19;99336.44;4975197;28;20654;-81
2023/06/17 08:49:45;;;;;;;8.57;6.00;;;;;;;31.50;21.78;99329.13;4973233;28;20506;-81
2023/06/17 08:52:13;;;;;;;6.50;5.90;;;;;;;31.71;21.77;99327.63;4971006;28;20210;-81
2023/06/17 08:54:42;;;;;;;6.87;6.17;;;;;;;31.97;21.62;99312.63;4969676;28;20471;-80
2023/06/17 08:57:12;;;;;;;9.40;5.93;;;;;;;32.20;21.68;99319.03;4968771;28;20470;-81
2023/06/17 08:59:41;;;;;;;6.73;6.10;;;;;;;32.31;21.39;99312.69;4965202;28;20463;-81
2023/06/17 09:02:07;;;;;;;6.60;6.00;;;;;;;32.31;21.46;99310.78;4970225;28;20444;-81
2023/06/17 09:04:34;;;;;;;6.80;6.20;;;;;;;32.34;21.38;99315.72;4975227;28;21036;-81
2023/06/17 09:06:59;;;;;;;7.10;6.47;;;;;;;32.37;20.79;99315.22;4988639;28;20450;-81
2023/06/17 09:09:25;;;;;;;7.03;6.33;;;;;;;32.30;21.28;99309.13;4988830;28;20760;-81
2023/06/17 09:11:51;;;;;;;7.20;6.47;;;;;;;32.17;21.70;99317.63;4990947;28;20251;-81
2023/06/17 09:14:18;;;;;;;6.50;5.93;;;;;;;32.13;21.45;99314.53;4997747;28;20212;-81
2023/06/17 09:16:44;;;;;;;8.00;6.37;;;;;;;32.17;20.82;99312.19;4986599;28;20462;-81
2023/06/17 09:19:10;;;;;;;7.13;6.43;;;;;;;32.31;20.96;99302.63;4991775;28;20544;-81
2023/06/17 09:21:38;;;;;;;8.07;6.37;;;;;;;32.40;20.62;99303.84;4987956;28;20505;-81
2023/06/17 09:24:06;;;;;;;6.60;6.00;;;;;;;32.52;20.95;99305.69;4989025;28;20221;-82
2023/06/17 09:26:33;;;;;;;8.23;5.80;;;;;;;32.67;20.49;99303.19;4990574;28;20442;-81
2023/06/17 09:29:05;;;;;;;6.50;5.20;;;;;;;32.79;20.02;99305.81;4989041;28;20479;-81
2023/06/17 09:31:31;;;;;;;5.80;4.90;;;;;;;32.88;19.86;99303.50;4994972;28;20455;-82
2023/06/17 09:34:02;;;;;;;12.10;6.37;;;;;;;32.98;19.48;99301.72;4995168;28;20527;-81
2023/06/17 09:36:28;;;;;;;6.33;5.83;;;;;;;33.14;19.03;99300.06;4997165;28;20488;-81
2023/06/17 09:38:54;;;;;;;6.47;5.97;;;;;;;33.16;19.16;99302.50;4992282;28;20507;-81
2023/06/17 09:41:23;;;;;;;8.20;5.27;;;;;;;33.16;18.81;99289.75;4995002;28;20527;-81
2023/06/17 09:43:52;;;;;;;6.77;5.37;;;;;;;33.18;18.93;99293.03;4994810;28;20207;-81
2023/06/17 09:46:29;;;;;;;7.83;7.03;;;;;;;33.10;18.70;99287.19;4994351;28;20463;-80
2023/06/17 09:48:57;;;;;;;6.33;5.60;;;;;;;33.11;18.69;99291.56;4987274;28;20783;-80
2023/06/17 09:51:23;;;;;;;5.63;5.13;;;;;;;32.97;18.75;99291.09;4988615;28;20538;-81
2023/06/17 09:53:55;;;;;;;6.03;4.90;;;;;;;32.98;18.84;99290.84;4988740;28;20885;-81
2023/06/17 09:56:21;;;;;;;6.40;5.40;;;;;;;33.14;18.45;99280.19;4986007;28;20461;-81
2023/06/17 09:58:47;;;;;;;6.07;5.50;;;;;;;33.34;18.05;99279.59;4988065;28;21104;-81
2023/06/17 10:01:13;;;;;;;6.07;5.53;;;;;;;33.51;17.64;99277.59;4988222;28;20197;-81
2023/06/17 10:03:41;;;;;;;6.43;4.60;;;;;;;33.68;17.96;99277.56;4994886;28;20449;-80
2023/06/17 10:06:12;;;;;;;5.63;5.13;;;;;;;33.83;17.54;99268.69;4991527;28;20522;-80
2023/06/17 10:08:41;;;;;;;5.60;5.07;;;;;;;33.81;17.14;99263.50;4991391;28;20452;-81
2023/06/17 10:11:07;;;;;;;6.03;5.40;;;;;;;33.92;17.06;99267.16;4991246;28;20543;-81
2023/06/17 10:13:36;;;;;;;5.23;4.73;;;;;;;33.98;16.63;99268.84;4990346;28;20487;-81
2023/06/17 10:16:04;;;;;;;6.33;5.67;;;;;;;33.90;16.31;99269.31;4994394;28;20205;-81
2023/06/17 10:18:33;;;;;;;5.93;5.10;;;;;;;33.83;16.31;99268.69;4992968;28;20452;-81
2023/06/17 10:21:00;;;;;;;6.27;4.53;;;;;;;33.77;16.21;99267.81;4990127;28;20464;-80
2023/06/17 10:23:26;;;;;;;4.87;4.30;;;;;;;33.88;15.96;99271.47;4986925;28;20583;-80
2023/06/17 10:25:53;;;;;;;5.40;4.90;;;;;;;33.99;16.09;99261.47;4992270;28;20458;-81
2023/06/17 10:28:19;;;;;;;5.10;3.90;;;;;;;34.01;15.68;99265.59;4989408;28;20551;-81
2023/06/17 10:30:48;;;;;;;4.47;3.80;;;;;;;33.97;15.70;99263.63;4988961;28;20522;-82
2023/06/17 10:33:13;;;;;;;4.20;3.90;;;;;;;34.01;15.43;99268.31;4985911;28;20513;-81
2023/06/17 10:35:44;;;;;;;4.83;4.43;;;;;;;34.09;15.25;99267.88;4987961;28;20562;-81
2023/06/17 10:38:29;;;;;;;5.33;4.77;;;;;;;34.12;15.43;99264.63;4985074;28;20356;-81
2023/06/17 10:40:54;;;;;;;4.90;4.50;;;;;;;34.05;15.37;99272.22;4988607;28;20475;-81
2023/06/17 10:43:20;;;;;;;4.00;3.60;;;;;;;34.10;15.25;99264.03;4991113;28;20455;-81
2023/06/17 10:45:59;;;;;;;5.93;4.17;;;;;;;34.21;15.05;99261.41;4993783;28;20267;-81
2023/06/17 10:48:29;;;;;;;5.60;3.53;;;;;;;34.28;14.49;99253.84;4993082;28;20960;-81
2023/06/17 10:50:58;;;;;;;4.63;4.23;;;;;;;34.31;14.53;99256.03;4988068;28;20470;-81
2023/06/17 10:53:32;;;;;;;6.37;3.80;;;;;;;34.33;14.22;99259.31;4987218;28;20902;-81
2023/06/17 10:56:00;;;;;;;4.93;4.50;;;;;;;34.30;14.52;99248.94;4982020;28;20459;-81
2023/06/17 10:58:43;;;;;;;4.57;4.17;;;;;;;34.19;14.69;99252.66;4989870;28;20489;-82
2023/06/17 11:01:10;;;;;;;5.83;5.23;;;;;;;34.08;15.27;99252.59;4986464;28;20507;-81
2023/06/17 11:03:36;;;;;;;10.50;6.03;;;;;;;34.03;15.49;99244.34;4988489;28;20474;-81
2023/06/17 11:06:06;;;;;;;5.43;4.73;;;;;;;34.14;15.41;99253.47;4992458;28;20639;-81
2023/06/17 11:08:34;;;;;;;5.70;4.10;;;;;;;34.22;15.82;99252.16;4992222;28;20937;-81
2023/06/17 11:11:11;;;;;;;5.47;4.97;;;;;;;34.11;15.62;99249.34;4988604;28;20467;-82
2023/06/17 11:13:39;;;;;;;11.87;5.17;;;;;;;34.10;15.69;99253.16;4987156;28;20500;-81
2023/06/17 11:16:05;;;;;;;5.87;5.27;;;;;;;34.08;15.52;99251.75;4992859;28;20448;-82
2023/06/17 11:18:33;;;;;;;5.37;4.70;;;;;;;33.94;15.50;99248.63;4993500;28;20474;-81
2023/06/17 11:20:59;;;;;;;6.63;5.33;;;;;;;33.80;15.82;99245.50;4983346;28;20489;-82
2023/06/17 11:23:26;;;;;;;8.20;5.27;;;;;;;33.67;15.73;99235.84;4988572;28;20489;-81
2023/06/17 11:25:52;;;;;;;14.70;7.47;;;;;;;33.57;16.05;99237.69;4985082;28;20702;-81
2023/06/17 11:28:19;;;;;;;6.60;6.00;;;;;;;33.49;16.24;99226.13;4988593;28;20510;-82
2023/06/17 11:30:45;;;;;;;8.33;5.27;;;;;;;33.49;16.32;99233.50;4992256;28;20473;-81
2023/06/17 11:33:11;;;;;;;5.60;5.03;;;;;;;33.55;16.11;99239.84;4992996;28;20881;-81